Time;durP1;ratioP1;P1;durP2;ratioP2;P2;SDS_P1;SDS_P2;PMS_P1;PMS_P2;Temp;Humidity;BMP_temperature;BMP_pressure;BME280_temperature;BME280_humidity;BME280_pressure;Samples;Min_cycle;Max_cycle;Signal;HPM_P1;HPM_P2
2021/12/23 00:39:46;;;;;;;;;;;;;;;;;;;;;
2021/12/23 00:49:31;;;;;;;31.12;18.48;;;;;;;;;;4258236;33;20060;-80
2021/12/23 00:55:42;;;;;;;38.42;20.17;;;;;;;;;;4227565;33;20069;-81
2021/12/23 00:58:26;;;;;;;30.80;18.37;;;;;;;;;;4243873;33;20078;-81
2021/12/23 01:24:26;;;;;;;;;;;;;;;;;;;;;
2021/12/23 02:52:30;;;;;;;;;;;;;;;;;;;;;
2021/12/23 03:01:42;;;;;;;45.42;27.37;;;;;;;;;;4173124;34;20073;-80
2021/12/23 03:04:39;;;;;;;;;;;;;;;;;;;;;
2021/12/23 03:52:38;;;;;;;88.78;45.50;;;;;;;;;;4216862;34;20050;-80
2021/12/23 03:58:43;;;;;;;90.35;44.47;;;;;;;;;;4217030;34;20458;-80
2021/12/23 04:02:19;;;;;;;;;;;;;;;;;;;;;
2021/12/23 04:10:59;;;;;;;96.40;43.65;;;;;;;;;;4202831;34;20055;-81
2021/12/23 04:20:19;;;;;;;;;;;;;;;;;;;;;
2021/12/23 04:31:55;;;;;;;90.20;42.70;;;;;;;;;;4175145;34;20054;-81
2021/12/23 05:09:18;;;;;;;;;;;;;;;;;;;;;
2021/12/23 05:42:17;;;;;;;97.40;45.03;;;;;;;;;;4188365;33;20045;-82
2021/12/23 06:46:02;;;;;;;107.97;47.85;;;;;;;;;;4215321;33;20069;-81
2021/12/23 06:54:17;;;;;;;101.05;47.88;;;;;;;;;;4189385;34;20078;-81
2021/12/23 06:59:48;;;;;;;97.57;44.00;;;;;;;;;;4189933;34;19949;-82
2021/12/23 07:40:01;;;;;;;;;;;;;;;;;;;;;
2021/12/23 08:03:29;;;;;;;101.40;44.72;;;;;;;;;;4180857;34;20077;-80
2021/12/23 08:09:27;;;;;;;93.10;42.40;;;;;;;;;;4170414;34;20077;-79
2021/12/23 08:18:26;;;;;;;95.38;44.22;;;;;;;;;;4135231;34;20067;-83
2021/12/23 08:54:54;;;;;;;97.93;41.40;;;;;;;;;;4242764;33;20092;-82
2021/12/23 08:58:06;;;;;;;;;;;;;;;;;;;;;
2021/12/23 09:14:07;;;;;;;;;;;;;;;;;;;;;
2021/12/23 10:42:53;;;;;;;;;;;;;;;;;;;;;
2021/12/23 11:45:26;;;;;;;62.03;31.02;;;;;;;;;;4333488;33;20374;-82
2021/12/23 11:47:51;;;;;;;;;;;;;;;;;;4316269;33;20029;-82
2021/12/23 11:50:33;;;;;;;73.18;33.17;;;;;;;;;;4316543;33;19989;-82
2021/12/23 11:53:10;;;;;;;64.35;33.03;;;;;;;;;;4316269;33;20059;-82
2021/12/23 11:55:39;;;;;;;60.12;30.92;;;;;;;;;;4316066;33;20084;-82
2021/12/23 11:58:15;;;;;;;63.22;31.20;;;;;;;;;;4313974;33;20047;-83
2021/12/23 12:03:52;;;;;;;66.70;31.45;;;;;;;;;;4299555;33;20095;-84
2021/12/23 12:06:48;;;;;;;58.83;29.37;;;;;;;;;;4315780;33;20059;-84
2021/12/23 12:09:49;;;;;;;56.33;29.23;;;;;;;;;;4315953;33;20190;-82
2021/12/23 12:12:17;;;;;;;59.88;30.30;;;;;;;;;;4303741;33;20032;-82
2021/12/23 12:15:30;;;;;;;51.28;29.63;;;;;;;;;;4315945;33;20048;-82
2021/12/23 12:27:43;;;;;;;57.50;29.15;;;;;;;;;;4230583;33;20102;-82
2021/12/23 12:33:19;;;;;;;61.78;30.45;;;;;;;;;;4287663;33;20380;-83
2021/12/23 12:54:13;;;;;;;;;;;;;;;;;;;;;
2021/12/23 12:59:43;;;;;;;53.03;29.55;;;;;;;;;;4286551;33;20420;-83
2021/12/23 13:05:27;;;;;;;55.55;31.00;;;;;;;;;;4314292;33;20028;-83
2021/12/23 13:08:08;;;;;;;61.75;30.62;;;;;;;;;;4318494;33;20099;-84
2021/12/23 13:10:46;;;;;;;;;;;;;;;;;;;;;
2021/12/23 13:13:26;;;;;;;55.35;28.05;;;;;;;;;;4317384;33;20032;-83
2021/12/23 13:16:00;;;;;;;54.38;27.55;;;;;;;;;;4317587;33;20043;-84
2021/12/23 13:18:42;;;;;;;;;;;;;;;;;;;;;
2021/12/23 13:21:11;;;;;;;60.42;28.52;;;;;;;;;;4318262;33;20024;-83
2021/12/23 13:26:44;;;;;;;57.88;30.45;;;;;;;;;;4289736;33;20133;-84
2021/12/23 13:32:00;;;;;;;54.13;29.40;;;;;;;;;;4311985;33;20040;-84
2021/12/23 13:34:35;;;;;;;55.00;30.45;;;;;;;;;;4318698;33;20024;-84
2021/12/23 13:37:11;;;;;;;55.00;28.85;;;;;;;;;;4318602;33;20182;-85
2021/12/23 13:39:38;;;;;;;54.50;29.02;;;;;;;;;;4310910;33;20020;-84
2021/12/23 13:42:08;;;;;;;51.85;30.17;;;;;;;;;;4311695;33;20112;-83
2021/12/23 13:44:49;;;;;;;52.33;30.52;;;;;;;;;;4315286;33;20043;-83
2021/12/23 13:47:19;;;;;;;55.92;28.70;;;;;;;;;;4308490;33;20079;-82
2021/12/23 13:49:51;;;;;;;52.83;28.60;;;;;;;;;;4317427;33;20027;-84
2021/12/23 13:52:22;;;;;;;53.60;31.75;;;;;;;;;;4317144;33;20028;-84
2021/12/23 13:54:47;;;;;;;59.00;30.85;;;;;;;;;;4303624;33;20032;-84
2021/12/23 13:57:13;;;;;;;;;;;;;;;;;;4303997;33;20048;-85
2021/12/23 13:59:39;;;;;;;69.95;32.55;;;;;;;;;;4319741;33;19943;-84
2021/12/23 14:02:04;;;;;;;;;;;;;;;;;;4318266;33;20020;-85
2021/12/23 14:10:50;;;;;;;55.08;29.87;;;;;;;;;;4286391;33;20093;-83
2021/12/23 14:13:19;;;;;;;54.47;30.45;;;;;;;;;;4273853;33;20046;-84
2021/12/23 14:15:49;;;;;;;53.53;30.55;;;;;;;;;;4273532;33;20088;-84
2021/12/23 14:18:24;;;;;;;54.42;29.95;;;;;;;;;;4306622;33;20081;-83
2021/12/23 14:23:31;;;;;;;55.85;31.58;;;;;;;;;;4331921;33;20024;-84
2021/12/23 14:25:59;;;;;;;55.00;30.27;;;;;;;;;;4332538;33;20032;-84
2021/12/23 14:28:30;;;;;;;54.53;31.95;;;;;;;;;;4332505;33;20035;-86
2021/12/23 14:30:56;;;;;;;61.70;33.05;;;;;;;;;;4333581;33;20043;-83
2021/12/23 14:33:21;;;;;;;;;;;;;;;;;;4326324;33;20023;-84
2021/12/23 14:39:30;;;;;;;;;;;;;;;;;;;;;
2021/12/23 14:45:49;;;;;;;59.65;32.40;;;;;;;;;;4271807;33;20080;-85
2021/12/23 14:48:31;;;;;;;;;;;;;;;;;;;;;
2021/12/23 14:54:24;;;;;;;66.68;32.63;;;;;;;;;;4278430;33;20081;-84
2021/12/23 14:57:39;;;;;;;;;;;;;;;;;;;;;
2021/12/23 15:00:14;;;;;;;56.42;33.28;;;;;;;;;;4303677;33;20067;-84
2021/12/23 15:14:13;;;;;;;67.65;34.80;;;;;;;;;;4319989;33;20043;-84
2021/12/23 15:19:57;;;;;;;63.25;34.47;;;;;;;;;;4245514;33;20093;-84
2021/12/23 15:22:36;;;;;;;;;;;;;;;;;;;;;
2021/12/23 15:25:11;;;;;;;63.05;36.10;;;;;;;;;;4319793;33;20036;-84
2021/12/23 15:27:49;;;;;;;;;;;;;;;;;;;;;
2021/12/23 15:30:28;;;;;;;67.82;34.75;;;;;;;;;;4307762;33;20024;-84
2021/12/23 15:33:06;;;;;;;65.10;36.47;;;;;;;;;;4319666;33;20024;-84
2021/12/23 15:38:52;;;;;;;;;;;;;;;;;;;;;
2021/12/23 15:44:35;;;;;;;72.07;37.35;;;;;;;;;;4315738;33;20487;-83
2021/12/23 15:47:05;;;;;;;82.72;38.85;;;;;;;;;;4315590;33;20115;-84
2021/12/23 15:49:30;;;;;;;64.50;36.90;;;;;;;;;;4306010;33;20502;-83
2021/12/23 15:52:01;;;;;;;;;;;;;;;;;;4320262;33;20032;-85
2021/12/23 15:54:46;;;;;;;73.57;39.17;;;;;;;;;;4304664;33;19940;-84
2021/12/23 15:57:19;;;;;;;69.62;36.88;;;;;;;;;;4318972;33;20028;-83
2021/12/23 15:59:47;;;;;;;74.47;38.85;;;;;;;;;;4318083;33;20044;-83
2021/12/23 16:02:12;;;;;;;79.10;39.63;;;;;;;;;;4316919;33;20039;-84
2021/12/23 16:04:47;;;;;;;;;;;;;;;;;;4320604;33;20336;-84
2021/12/23 16:07:30;;;;;;;73.95;35.40;;;;;;;;;;4321302;33;20325;-83
2021/12/23 16:09:58;;;;;;;71.75;36.63;;;;;;;;;;4333697;33;20102;-84
2021/12/23 16:12:25;;;;;;;73.57;38.08;;;;;;;;;;4333048;33;20383;-84
2021/12/23 16:15:14;;;;;;;88.68;38.88;;;;;;;;;;4333017;33;20485;-84
2021/12/23 16:17:39;;;;;;;71.62;37.75;;;;;;;;;;4332941;33;20044;-84
2021/12/23 16:20:04;;;;;;;;;;;;;;;;;;4333782;33;20403;-83
2021/12/23 16:23:01;;;;;;;70.93;37.38;;;;;;;;;;4333094;33;19979;-83
2021/12/23 16:25:42;;;;;;;68.15;36.45;;;;;;;;;;4320218;33;20045;-83
2021/12/23 16:28:13;;;;;;;76.93;40.47;;;;;;;;;;4333701;33;20058;-83
2021/12/23 16:30:39;;;;;;;74.15;39.22;;;;;;;;;;4320114;33;20020;-84
2021/12/23 16:33:10;;;;;;;;;;;;;;;;;;4337334;33;20058;-84
2021/12/23 16:35:46;;;;;;;74.55;38.95;;;;;;;;;;4337220;33;20058;-84
2021/12/23 16:38:35;;;;;;;;;;;;;;;;;;;;;
2021/12/23 16:41:01;;;;;;;78.20;40.53;;;;;;;;;;4336171;33;20050;-84
2021/12/23 16:43:30;;;;;;;;;;;;;;;;;;4336180;33;20040;-85
2021/12/23 16:46:26;;;;;;;78.60;39.05;;;;;;;;;;4321531;33;19969;-84
2021/12/23 16:49:14;;;;;;;76.72;40.60;;;;;;;;;;4313099;33;20081;-83
2021/12/23 16:51:46;;;;;;;74.25;38.97;;;;;;;;;;4319627;33;20024;-85
2021/12/23 16:54:16;;;;;;;79.05;41.58;;;;;;;;;;4319858;33;20057;-85
2021/12/23 16:59:30;;;;;;;73.35;41.55;;;;;;;;;;4332443;33;20039;-84
2021/12/23 17:02:00;;;;;;;86.82;44.40;;;;;;;;;;4318087;33;20036;-84
2021/12/23 17:04:36;;;;;;;77.00;41.92;;;;;;;;;;4335968;33;20031;-84
2021/12/23 17:07:11;;;;;;;;;;;;;;;;;;4333044;33;20028;-85
2021/12/23 17:13:06;;;;;;;84.05;45.12;;;;;;;;;;4314959;33;20029;-86
2021/12/23 17:15:32;;;;;;;78.78;40.70;;;;;;;;;;4319690;33;20046;-83
2021/12/23 17:18:03;;;;;;;;;;;;;;;;;;4332144;33;20031;-84
2021/12/23 17:26:01;;;;;;;84.40;45.75;;;;;;;;;;4322283;33;20070;-85
2021/12/23 17:28:30;;;;;;;;;;;;;;;;;;4320502;33;20028;-85
2021/12/23 17:31:01;;;;;;;84.10;42.17;;;;;;;;;;4332722;33;19940;-85
2021/12/23 17:33:32;;;;;;;81.70;43.85;;;;;;;;;;4332133;33;20087;-84
2021/12/23 17:39:22;;;;;;;87.85;42.90;;;;;;;;;;4286659;33;20368;-84
2021/12/23 17:45:18;;;;;;;81.30;41.63;;;;;;;;;;4329910;33;20074;-84
2021/12/23 17:48:15;;;;;;;87.95;45.97;;;;;;;;;;4327254;33;20040;-85
2021/12/23 17:50:49;;;;;;;;;;;;;;;;;;4328567;33;20063;-83
2021/12/23 17:53:19;;;;;;;84.80;46.03;;;;;;;;;;4315605;33;19959;-83
2021/12/23 17:56:18;;;;;;;87.43;44.85;;;;;;;;;;4329058;33;20048;-83
2021/12/23 17:59:02;;;;;;;;;;;;;;;;;;;;;
2021/12/23 18:01:31;;;;;;;92.57;46.72;;;;;;;;;;4332125;33;20062;-83
2021/12/23 18:06:56;;;;;;;;;;;;;;;;;;4332025;33;20054;-84
2021/12/23 18:09:57;;;;;;;94.70;44.83;;;;;;;;;;4318003;33;19939;-83
2021/12/23 18:15:42;;;;;;;106.85;49.28;;;;;;;;;;4258666;33;20033;-84
2021/12/23 18:18:10;;;;;;;103.10;48.33;;;;;;;;;;4259751;33;20034;-83
2021/12/23 18:20:40;;;;;;;103.55;47.75;;;;;;;;;;4316092;33;20460;-84
2021/12/23 18:23:09;;;;;;;105.63;48.03;;;;;;;;;;4331229;33;20460;-84
2021/12/23 18:25:41;;;;;;;110.32;50.17;;;;;;;;;;4331664;33;20036;-84
2021/12/23 18:28:27;;;;;;;131.55;54.63;;;;;;;;;;4318413;33;20024;-83
2021/12/23 18:30:53;;;;;;;119.13;54.72;;;;;;;;;;4331421;33;20032;-83
2021/12/23 18:33:23;;;;;;;;;;;;;;;;;;4317751;33;20055;-82
2021/12/23 18:36:09;;;;;;;;;;;;;;;;;;;;;
2021/12/23 18:38:53;;;;;;;119.87;52.90;;;;;;;;;;4316929;33;20373;-83
2021/12/23 19:04:31;;;;;;;;;;;;;;;;;;;;;
2021/12/23 19:06:46;;;;;;;;;;;;;;;;;;;;;
2021/12/23 19:09:18;;;;;;;188.10;69.22;;;;;;;;;;4344855;33;20032;-82
2021/12/23 19:12:16;;;;;;;;;;;;;;;;;;;;;
2021/12/23 19:14:50;;;;;;;185.25;67.62;;;;;;;;;;4325169;33;20035;-78
2021/12/23 19:17:45;;;;;;;195.57;67.80;;;;;;;;;;4333019;33;20090;-80
2021/12/23 19:20:10;;;;;;;206.05;73.40;;;;;;;;;;4302109;33;20100;-79
2021/12/23 19:23:06;;;;;;;;;;;;;;;;;;;;;
2021/12/23 19:25:36;;;;;;;217.77;74.20;;;;;;;;;;4330738;33;19939;-79
2021/12/23 19:31:08;;;;;;;194.62;68.85;;;;;;;;;;4332851;33;20083;-80
2021/12/23 19:33:34;;;;;;;198.98;73.95;;;;;;;;;;4333253;33;20055;-80
2021/12/23 19:36:00;;;;;;;;;;;;;;;;;;4333730;33;20107;-77
2021/12/23 19:38:25;;;;;;;213.93;71.00;;;;;;;;;;4332784;33;20247;-75
2021/12/23 19:40:51;;;;;;;;;;;;;;;;;;4333033;33;20039;-76
2021/12/23 19:43:16;;;;;;;188.23;73.45;;;;;;;;;;4332823;33;19935;-77
2021/12/23 19:45:44;;;;;;;;;;;;;;;;;;4333345;33;20121;-77
2021/12/23 19:48:11;;;;;;;177.20;65.07;;;;;;;;;;4333180;33;19974;-77
2021/12/23 19:51:31;;;;;;;167.68;66.72;;;;;;;;;;4333288;33;20082;-77
2021/12/23 19:53:32;;;;;;;150.35;64.00;;;;;;;;;;4326870;33;20087;-76
2021/12/23 19:55:57;;;;;;;;;;;;;;;;;;4328385;33;20094;-76
2021/12/23 19:58:32;;;;;;;;;;;;;;;;;;;;;
2021/12/23 20:00:58;;;;;;;141.40;55.78;;;;;;;;;;4318807;33;20068;-76
2021/12/23 20:03:23;;;;;;;;;;;;;;;;;;4332948;33;20374;-76
2021/12/23 20:21:08;;;;;;;108.87;51.60;;;;;;;;;;4294584;33;20055;-77
2021/12/23 20:23:08;;;;;;;111.82;53.10;;;;;;;;;;4312338;33;20024;-75
2021/12/23 20:28:18;;;;;;;113.60;51.55;;;;;;;;;;4331856;33;19938;-76
2021/12/23 20:30:44;;;;;;;;;;;;;;;;;;4332426;33;20021;-75
2021/12/23 20:33:44;;;;;;;110.68;52.42;;;;;;;;;;4332486;33;19989;-75
2021/12/23 20:36:09;;;;;;;115.03;56.85;;;;;;;;;;4332374;33;20028;-75
2021/12/23 20:38:34;;;;;;;;;;;;;;;;;;4332474;33;20065;-75
2021/12/23 20:41:15;;;;;;;129.12;55.83;;;;;;;;;;4332845;33;19970;-76
2021/12/23 20:43:51;;;;;;;118.97;59.60;;;;;;;;;;4318841;33;20060;-76
2021/12/23 20:58:20;;;;;;;152.45;66.05;;;;;;;;;;4235396;33;20109;-75
2021/12/23 21:00:51;;;;;;;144.52;66.72;;;;;;;;;;4229583;34;20098;-75
2021/12/23 21:09:33;;;;;;;147.98;64.40;;;;;;;;;;4271932;33;20064;-75
2021/12/23 21:18:43;;;;;;;148.40;72.45;;;;;;;;;;4201581;34;20065;-76
2021/12/23 21:21:09;;;;;;;142.65;65.55;;;;;;;;;;4213183;33;20452;-75
2021/12/23 21:23:37;;;;;;;140.20;65.32;;;;;;;;;;4244016;33;20033;-75
2021/12/23 21:29:05;;;;;;;139.62;65.18;;;;;;;;;;4331944;33;20043;-75
2021/12/23 21:37:16;;;;;;;143.77;66.68;;;;;;;;;;4331803;33;20059;-75
2021/12/23 21:40:00;;;;;;;137.95;64.87;;;;;;;;;;4330992;33;20059;-75
2021/12/23 21:42:39;;;;;;;130.18;62.83;;;;;;;;;;4331799;33;20461;-75
2021/12/23 21:55:04;;;;;;;115.18;58.63;;;;;;;;;;4285839;33;20096;-76
2021/12/23 22:00:44;;;;;;;117.72;57.60;;;;;;;;;;4285564;33;20060;-75
2021/12/23 22:12:47;;;;;;;124.22;61.13;;;;;;;;;;4285736;33;20066;-75
2021/12/23 22:24:18;;;;;;;177.27;72.43;;;;;;;;;;4228410;33;20036;-75
2021/12/23 22:26:46;;;;;;;189.57;81.10;;;;;;;;;;4253469;33;20041;-75
2021/12/23 22:29:17;;;;;;;190.23;79.50;;;;;;;;;;4285020;33;20063;-75
2021/12/23 22:32:04;;;;;;;204.90;75.35;;;;;;;;;;4330622;33;20057;-75
2021/12/23 22:34:39;;;;;;;206.05;79.03;;;;;;;;;;4330788;33;20103;-75
2021/12/23 22:37:05;;;;;;;171.53;71.13;;;;;;;;;;4330874;33;20024;-75
2021/12/23 22:39:30;;;;;;;;;;;;;;;;;;4331244;33;20389;-76
2021/12/23 22:51:46;;;;;;;165.15;64.80;;;;;;;;;;4285699;33;20029;-76
2021/12/23 22:54:11;;;;;;;154.05;62.28;;;;;;;;;;4289641;33;20051;-76
2021/12/23 22:56:37;;;;;;;;;;;;;;;;;;4331125;33;20381;-76
2021/12/23 22:59:16;;;;;;;142.18;62.03;;;;;;;;;;4330508;33;20294;-76
2021/12/23 23:01:44;;;;;;;160.35;64.78;;;;;;;;;;4317331;33;20059;-76
